• Join FlightAware (Why Join?)
  • Login
  • US Flag 
04:01PM EDT


 

Airport Tracker/Info


-or-


 

Live Flight TrackerFlight Track Log ✈ AWE3997 ✈ 20-Apr-2013 ✈ KCLT - KRIC

Flight Track Log - Related Links

Times and Time Zones

All times are in EDT time to prevent confusion due to time zone crossing. See the AWE3997 flight status page for this flight to view local times or setup timezone preferences in your user account.

Time Position Orientation Groundspeed Altitude Reporting Facility
EDT Latitude Longitude Course Direction KTS MPH feet Rate Location/Type
03:00PM 35.2306 -80.9392 72° East 156 180 1,400  Level Atlanta Center
03:01PM 35.2986 -80.9061 22° Northeast 221 254 4,600 2,040 Climbing Atlanta Center
03:02PM 35.1213 -80.6191 29° Northeast  Level FlightAware Approximate
03:02PM 35.2992 -80.8450 89° East 267 307 5,800  Level Atlanta Center
03:02PM 35.2983 -80.8172 92° East 282 325 6,600 1,980 Climbing Atlanta Center
03:03PM 35.2208 -80.5518 30° Northeast  Level FlightAware Approximate
03:04PM 35.3167 -80.4801 90° East  Level FlightAware Approximate
03:04PM 35.2978 -80.6417 90° East 327 376 9,800  Level Atlanta Center
03:05PM 35.3599 -80.3663 72° East  Level FlightAware Approximate
03:05PM 35.3158 -80.5417 77° East 322 371 11,100  Level Atlanta Center
03:07PM 35.3831 -80.3025 71° East 369 425 13,500 1,260 Climbing Washington Center
03:08PM 35.4236 -80.1750 69° East 395 455 14,900 1,500 Climbing Washington Center
03:09PM 35.4597 -80.0469 71° East 401 461 16,500 1,380 Climbing Washington Center
03:10PM 35.4944 -79.8958 74° East 409 471 17,800 1,140 Climbing Washington Center
03:11PM 35.5328 -79.7550 71° East 419 482 18,800 900 Climbing Washington Center
03:12PM 35.5642 -79.6289 73° East 428 493 19,700 900 Climbing Washington Center
03:13PM 35.6025 -79.4853 72° East 433 498 20,700 600 Climbing Washington Center
03:14PM 35.6508 -79.3419 67° East 438 504 20,900 -420 Climbing Washington Center
03:15PM 35.7072 -79.2039 63° Northeast 443 510 19,900 -960 Descending Washington Center
03:16PM 35.7614 -79.0706 63° Northeast 448 516 19,000 -480 Descending Washington Center
03:17PM 35.8086 -78.9472 65° Northeast 421 484 19,000  Level Washington Center
03:18PM 35.8578 -78.8289 63° Northeast 397 457 19,000  Level Washington Center
03:19PM 35.9311 -78.7344 46° Northeast 379 436 19,000  Level Washington Center
03:20PM 36.0167 -78.6531 38° Northeast 373 429 19,000  Level Washington Center
03:21PM 36.1022 -78.5767 36° Northeast 373 429 19,000  Level Washington Center
03:22PM 36.1897 -78.4950 37° Northeast 379 436 19,000  Level Washington Center
03:23PM 36.2750 -78.4158 37° Northeast 379 436 19,000  Level Washington Center
03:24PM 36.3603 -78.3364 37° Northeast 379 436 19,000  Level Washington Center
03:25PM 36.4456 -78.2567 37° Northeast 379 436 19,000 -420 Level Washington Center
03:26PM 36.5308 -78.1769 37° Northeast 374 430 18,200 -1,080 Descending Washington Center
03:27PM 36.6181 -78.0944 37° Northeast 374 430 16,900 -1,440 Descending Washington Center
03:28PM 36.7033 -78.0089 39° Northeast 374 430 15,400 -1,500 Descending Washington Center
03:29PM 36.7883 -77.9314 36° Northeast 380 437 13,900 -1,440 Descending Washington Center
03:30PM 36.8692 -77.8583 36° Northeast 369 425 12,600 -1,260 Descending Washington Center
03:31PM 36.9517 -77.7906 33° Northeast 364 419 11,400 -1,200 Descending Washington Center
03:32PM 37.0258 -77.7253 35° Northeast 348 400 10,200 -1,440 Descending Washington Center
03:33PM 37.1000 -77.6647 33° Northeast 326 375 8,600 -1,500 Descending Washington Center
03:34PM 37.1656 -77.6092 34° Northeast 301 346 7,300 -1,500 Descending Washington Center
03:35PM 37.2272 -77.5431 40° Northeast 275 316 5,600 -1,800 Descending Washington Center
03:36PM 37.2803 -77.4869 40° Northeast 260 299 3,800 -1,680 Descending Washington Center
03:37PM 37.3331 -77.4333 39° Northeast 255 293 2,300 -900 Descending Washington Center
03:38PM 37.3819 -77.3822 40° Northeast 237 273 2,000 -300 Descending Washington Center